createdAt,value
2018-12-06T00:00:11.017Z,34.33
2018-12-06T00:02:39.208Z,34.20
2018-12-06T00:05:07.531Z,33.33
2018-12-06T00:07:35.778Z,33.37
2018-12-06T00:10:04.141Z,39.97
2018-12-06T00:12:32.317Z,43.07
2018-12-06T00:15:11.897Z,46.40
2018-12-06T00:17:40.937Z,41.70
2018-12-06T00:20:09.116Z,50.87
2018-12-06T00:22:37.303Z,38.80
2018-12-06T00:25:05.632Z,38.00
2018-12-06T00:27:33.788Z,42.13
2018-12-06T00:30:13.505Z,41.23
2018-12-06T00:32:41.668Z,39.70
2018-12-06T00:35:09.824Z,33.97
2018-12-06T00:37:38.029Z,42.23
2018-12-06T00:40:06.563Z,38.77
2018-12-06T00:42:34.724Z,36.60
2018-12-06T00:45:03.065Z,41.00
2018-12-06T00:47:31.345Z,40.50
2018-12-06T00:49:59.505Z,30.47
2018-12-06T00:52:27.669Z,34.80
2018-12-06T00:54:55.958Z,47.80
2018-12-06T00:57:24.131Z,45.07
2018-12-06T00:59:52.313Z,48.57
2018-12-06T01:02:20.889Z,49.27
2018-12-06T01:04:49.072Z,46.83
2018-12-06T01:07:17.239Z,48.63
2018-12-06T01:09:45.528Z,36.93
2018-12-06T01:12:13.769Z,47.07
2018-12-06T01:14:41.944Z,51.50
2018-12-06T01:17:10.341Z,48.80
2018-12-06T01:19:38.653Z,49.50
2018-12-06T01:22:07.017Z,55.97
2018-12-06T01:24:35.200Z,46.77
2018-12-06T01:27:03.474Z,34.77
2018-12-06T01:29:31.749Z,56.70
2018-12-06T01:31:59.917Z,52.37
2018-12-06T01:34:28.076Z,40.43
2018-12-06T01:36:56.278Z,59.90
2018-12-06T01:39:24.445Z,49.63
2018-12-06T01:41:52.613Z,34.50
2018-12-06T01:44:20.797Z,42.13
2018-12-06T01:46:48.969Z,70.17
2018-12-06T01:49:17.145Z,62.00
2018-12-06T01:51:45.412Z,60.20
2018-12-06T01:54:13.597Z,56.77
2018-12-06T01:56:41.753Z,61.17
2018-12-06T01:59:09.908Z,55.47
2018-12-06T02:01:38.110Z,61.27
2018-12-06T02:04:06.405Z,64.43
2018-12-06T02:06:34.577Z,61.20
2018-12-06T02:09:02.832Z,58.40
2018-12-06T02:11:31.057Z,57.43
2018-12-06T02:13:59.404Z,64.20
2018-12-06T02:16:27.713Z,64.57
2018-12-06T02:18:56.060Z,68.10
2018-12-06T02:21:24.237Z,59.90
2018-12-06T02:23:52.506Z,55.87
2018-12-06T02:26:20.685Z,54.23
2018-12-06T02:28:49.256Z,50.50
2018-12-06T02:31:17.448Z,57.77
2018-12-06T02:33:45.709Z,54.30
2018-12-06T02:36:13.893Z,64.47
2018-12-06T02:38:42.065Z,54.97
2018-12-06T02:41:10.357Z,58.37
2018-12-06T02:43:38.525Z,53.37
2018-12-06T02:46:06.770Z,67.77
2018-12-06T02:48:35.017Z,64.83
2018-12-06T02:51:03.374Z,56.37
2018-12-06T02:53:31.628Z,62.07
2018-12-06T02:55:59.917Z,62.63
2018-12-06T02:58:28.177Z,63.33
2018-12-06T03:00:56.476Z,64.57
2018-12-06T03:03:24.633Z,53.87
2018-12-06T03:05:52.816Z,58.50
2018-12-06T03:08:20.980Z,64.20
2018-12-06T03:10:49.160Z,62.87
2018-12-06T03:13:17.321Z,52.10
2018-12-06T03:15:45.613Z,59.80
2018-12-06T03:18:13.766Z,57.20
2018-12-06T03:20:41.981Z,57.07
2018-12-06T03:23:10.128Z,61.77
2018-12-06T03:25:38.463Z,52.07
2018-12-06T03:28:06.682Z,70.40
2018-12-06T03:30:34.994Z,63.50
2018-12-06T03:33:03.142Z,58.10
2018-12-06T03:35:31.301Z,55.97
2018-12-06T03:37:59.460Z,63.77
2018-12-06T03:40:27.668Z,59.63
2018-12-06T03:42:55.852Z,59.13
2018-12-06T03:45:24.114Z,51.50
2018-12-06T03:47:52.416Z,64.73
2018-12-06T03:50:20.668Z,70.77
2018-12-06T03:52:49.061Z,60.93
2018-12-06T03:55:17.292Z,62.50
2018-12-06T03:57:45.518Z,61.80
2018-12-06T04:00:14.297Z,62.50
2018-12-06T04:02:42.561Z,46.93
2018-12-06T04:05:10.709Z,52.17
2018-12-06T04:07:38.938Z,69.83
2018-12-06T04:10:07.336Z,81.90
2018-12-06T04:12:35.581Z,80.80
2018-12-06T04:15:04.126Z,82.53
2018-12-06T04:17:32.346Z,90.03
2018-12-06T04:20:00.489Z,77.80
2018-12-06T04:22:28.697Z,86.80
2018-12-06T04:24:56.861Z,70.57
2018-12-06T04:27:25.044Z,70.23
2018-12-06T04:29:53.210Z,67.50
2018-12-06T04:32:21.400Z,69.83
2018-12-06T04:34:49.557Z,54.97
2018-12-06T04:37:17.728Z,64.80
2018-12-06T04:39:45.914Z,49.63
2018-12-06T04:42:14.080Z,65.87
2018-12-06T04:44:42.273Z,56.03
2018-12-06T04:47:10.644Z,57.80
2018-12-06T04:49:38.807Z,65.73
2018-12-06T04:52:06.949Z,53.47
2018-12-06T04:54:35.172Z,70.73
2018-12-06T04:57:03.321Z,59.07
2018-12-06T04:59:31.741Z,50.17
2018-12-06T05:02:00.013Z,47.73
2018-12-06T05:04:28.253Z,67.33
2018-12-06T05:06:56.401Z,65.50
2018-12-06T05:09:24.553Z,60.23
2018-12-06T05:11:52.808Z,79.40
2018-12-06T05:14:21.361Z,65.90
2018-12-06T05:16:49.816Z,58.90
2018-12-06T05:19:17.977Z,69.03
2018-12-06T05:21:46.149Z,69.80
2018-12-06T05:24:14.409Z,64.03
2018-12-06T05:26:42.668Z,68.37
2018-12-06T05:29:10.844Z,60.00
2018-12-06T05:31:39.125Z,41.70
2018-12-06T05:34:07.288Z,68.07
2018-12-06T05:36:35.441Z,73.07
2018-12-06T05:39:05.081Z,71.77
2018-12-06T05:41:33.241Z,55.00
2018-12-06T05:44:01.529Z,60.60
2018-12-06T05:46:29.714Z,64.40
2018-12-06T05:48:57.949Z,59.80
2018-12-06T05:51:26.159Z,57.40
2018-12-06T05:53:54.348Z,56.83
2018-12-06T05:56:22.600Z,59.50
2018-12-06T05:58:50.844Z,53.50
2018-12-06T06:01:19.009Z,51.97
2018-12-06T06:03:47.242Z,59.33
2018-12-06T06:06:15.421Z,61.40
2018-12-06T06:08:43.593Z,51.57
2018-12-06T06:11:11.832Z,54.10
2018-12-06T06:13:39.989Z,54.27
2018-12-06T06:16:08.224Z,58.60
2018-12-06T06:18:36.405Z,58.03
2018-12-06T06:21:04.562Z,60.60
2018-12-06T06:23:32.713Z,67.73
2018-12-06T06:26:01.033Z,52.53
2018-12-06T06:28:29.185Z,63.30
2018-12-06T06:30:57.376Z,64.20
2018-12-06T06:33:25.637Z,58.87
2018-12-06T06:35:53.952Z,63.13
2018-12-06T06:38:22.202Z,74.93
2018-12-06T06:40:50.488Z,58.67
2018-12-06T06:43:18.641Z,67.00
2018-12-06T06:48:20.637Z,59.00
2018-12-06T06:50:48.817Z,59.13
2018-12-06T06:53:16.977Z,54.03
2018-12-06T06:55:45.173Z,65.13
2018-12-06T06:58:13.316Z,66.73
2018-12-06T07:00:41.681Z,61.30
2018-12-06T07:03:09.888Z,56.63
2018-12-06T07:05:38.062Z,60.23
2018-12-06T07:08:06.281Z,56.63
2018-12-06T07:10:35.085Z,61.53
2018-12-06T07:13:03.517Z,55.13
2018-12-06T07:15:31.665Z,64.17
2018-12-06T07:17:59.828Z,61.07
2018-12-06T07:20:28.081Z,58.67
2018-12-06T07:22:56.317Z,60.40
2018-12-06T07:25:24.629Z,63.87
2018-12-06T07:27:52.787Z,57.27
2018-12-06T07:30:21.057Z,61.57
2018-12-06T07:32:49.321Z,56.53
2018-12-06T07:35:17.501Z,56.60
2018-12-06T07:37:45.657Z,51.80
2018-12-06T07:40:14.061Z,59.83
2018-12-06T07:42:42.329Z,57.00
2018-12-06T07:45:10.737Z,61.20
2018-12-06T07:47:38.901Z,58.43
2018-12-06T07:50:07.378Z,48.93
2018-12-06T07:52:35.760Z,62.17
2018-12-06T07:55:04.433Z,56.03
2018-12-06T07:57:32.608Z,58.50
2018-12-06T08:00:00.765Z,62.07
2018-12-06T08:02:28.926Z,59.57
2018-12-06T08:04:57.121Z,59.53
2018-12-06T08:07:25.337Z,53.83
2018-12-06T08:09:53.492Z,48.90
2018-12-06T08:12:21.757Z,46.57
2018-12-06T08:14:50.097Z,55.60
2018-12-06T08:17:18.305Z,53.43
2018-12-06T08:19:46.489Z,51.70
2018-12-06T08:22:14.653Z,54.53
2018-12-06T08:24:42.845Z,58.67
2018-12-06T08:27:11.011Z,58.27
2018-12-06T08:29:39.193Z,61.97
2018-12-06T08:32:07.357Z,62.13
2018-12-06T08:34:35.644Z,53.67
2018-12-06T08:37:03.893Z,56.30
2018-12-06T08:39:32.101Z,50.37
2018-12-06T08:42:00.509Z,56.13
2018-12-06T08:44:28.673Z,52.20
2018-12-06T08:46:56.909Z,57.30
2018-12-06T08:49:25.198Z,57.20
2018-12-06T08:51:53.372Z,56.97
2018-12-06T08:54:21.661Z,58.10
2018-12-06T08:56:49.945Z,59.93
2018-12-06T08:59:18.218Z,59.77
2018-12-06T09:01:46.416Z,58.13
2018-12-06T09:04:14.573Z,65.97
2018-12-06T09:06:42.833Z,65.53
2018-12-06T09:09:11.120Z,57.13
2018-12-06T09:11:39.273Z,62.47
2018-12-06T09:14:07.572Z,69.60
2018-12-06T09:16:35.717Z,65.17
2018-12-06T09:19:04.053Z,65.73
2018-12-06T09:21:32.293Z,63.27
2018-12-06T09:24:00.927Z,69.07
2018-12-06T09:26:29.169Z,70.03
2018-12-06T09:28:57.420Z,69.40
2018-12-06T09:31:25.719Z,68.33
2018-12-06T09:34:07.081Z,70.83
2018-12-06T09:36:36.298Z,63.53
2018-12-06T09:39:07.005Z,61.73
2018-12-06T09:41:35.300Z,59.43
2018-12-06T09:44:03.688Z,58.00
2018-12-06T09:46:34.077Z,52.40
2018-12-06T09:49:04.517Z,50.07
2018-12-06T09:51:33.346Z,49.97
2018-12-06T09:54:01.847Z,52.47
2018-12-06T09:56:30.024Z,57.27
2018-12-06T09:58:58.164Z,47.47
2018-12-06T10:01:26.345Z,40.43
2018-12-06T10:03:57.141Z,48.03
2018-12-06T10:06:31.382Z,47.43
2018-12-06T10:08:59.613Z,47.80
2018-12-06T10:11:27.794Z,57.83
2018-12-06T10:13:55.949Z,56.70
2018-12-06T10:16:24.258Z,47.10
2018-12-06T10:18:52.510Z,57.07
2018-12-06T10:21:20.866Z,48.90
2018-12-06T10:23:49.073Z,48.07
2018-12-06T10:26:17.307Z,49.97
2018-12-06T10:28:45.473Z,55.33
2018-12-06T10:31:13.665Z,50.17
2018-12-06T10:33:41.948Z,60.17
2018-12-06T10:36:10.365Z,56.80
2018-12-06T10:38:38.612Z,69.53
2018-12-06T10:41:07.481Z,56.80
2018-12-06T10:43:35.712Z,62.17
2018-12-06T10:46:04.017Z,62.93
2018-12-06T10:48:32.421Z,67.80
2018-12-06T10:51:11.974Z,56.07
2018-12-06T10:53:40.132Z,43.63
2018-12-06T10:56:08.321Z,49.17
2018-12-06T10:58:36.477Z,55.67
2018-12-06T11:01:08.397Z,55.57
2018-12-06T11:03:40.800Z,52.90
2018-12-06T11:06:09.105Z,55.47
2018-12-06T11:08:37.270Z,51.23
2018-12-06T11:11:05.485Z,55.97
2018-12-06T11:13:33.709Z,51.47
2018-12-06T11:16:01.904Z,47.03
2018-12-06T11:18:30.121Z,50.23
2018-12-06T11:20:58.333Z,50.40
2018-12-06T11:23:26.721Z,48.97
2018-12-06T11:25:54.997Z,58.23
2018-12-06T11:28:23.181Z,58.50
2018-12-06T11:30:51.824Z,56.20
2018-12-06T11:33:20.077Z,49.13
2018-12-06T11:35:48.323Z,54.17
2018-12-06T11:38:16.573Z,59.37
2018-12-06T11:40:44.724Z,61.37
2018-12-06T11:43:13.040Z,64.93
2018-12-06T11:45:41.320Z,59.87
2018-12-06T11:48:09.601Z,67.80
2018-12-06T11:50:37.872Z,51.40
2018-12-06T11:53:06.073Z,57.80
2018-12-06T11:55:34.613Z,54.87
2018-12-06T11:58:03.025Z,54.17
2018-12-06T12:00:31.189Z,47.03
2018-12-06T12:02:59.353Z,45.70
2018-12-06T12:05:27.544Z,51.90
2018-12-06T12:07:55.704Z,51.40
2018-12-06T12:10:24.805Z,53.20
2018-12-06T12:12:53.001Z,58.80
2018-12-06T12:15:21.472Z,50.33
2018-12-06T12:17:49.761Z,63.00
2018-12-06T12:20:17.920Z,64.13
2018-12-06T12:22:46.181Z,60.13
2018-12-06T12:25:14.369Z,55.67
2018-12-06T12:27:42.866Z,52.77
2018-12-06T12:30:11.053Z,54.87
2018-12-06T12:32:39.209Z,53.73
2018-12-06T12:35:07.515Z,57.43
2018-12-06T12:37:50.232Z,51.80
2018-12-06T12:40:26.315Z,53.10
2018-12-06T12:43:06.208Z,47.13
2018-12-06T12:45:34.613Z,44.17
2018-12-06T12:48:02.865Z,46.87
2018-12-06T12:50:31.046Z,68.30
2018-12-06T12:52:59.216Z,153.63
2018-12-06T12:55:27.377Z,16.00
2018-12-06T12:57:55.552Z,14.37
2018-12-06T13:00:23.721Z,35.60
2018-12-06T13:02:51.908Z,62.00
2018-12-06T13:05:20.077Z,30.60
2018-12-06T13:07:48.257Z,34.80
2018-12-06T13:10:16.452Z,43.33
2018-12-06T13:12:44.624Z,31.83
2018-12-06T13:15:12.909Z,36.97
2018-12-06T13:17:41.105Z,34.17
2018-12-06T13:20:09.465Z,30.03
2018-12-06T13:22:37.617Z,35.83
2018-12-06T13:25:06.697Z,28.13
2018-12-06T13:27:34.993Z,22.33
2018-12-06T13:30:03.933Z,16.77
2018-12-06T13:32:32.164Z,25.83
2018-12-06T13:35:00.412Z,25.13
2018-12-06T13:37:28.560Z,17.63
2018-12-06T13:39:56.818Z,9.40
2018-12-06T13:42:25.056Z,9.10
2018-12-06T13:44:53.365Z,9.63
2018-12-06T13:47:21.508Z,6.83
2018-12-06T13:49:49.681Z,5.83
2018-12-06T13:52:17.833Z,6.93
2018-12-06T13:54:45.977Z,6.27
2018-12-06T13:57:14.159Z,7.37
2018-12-06T13:59:42.297Z,5.80
2018-12-06T14:02:10.453Z,4.97
2018-12-06T14:04:38.609Z,4.90
2018-12-06T14:07:06.848Z,5.80
2018-12-06T14:09:35.101Z,6.13
2018-12-06T14:12:03.346Z,7.40
2018-12-06T14:14:31.581Z,7.47
2018-12-06T14:16:59.741Z,6.93
2018-12-06T14:19:28.005Z,6.63
2018-12-06T14:21:56.285Z,6.70
2018-12-06T14:24:24.448Z,9.33
2018-12-06T14:26:52.661Z,6.80
2018-12-06T14:29:20.834Z,10.30
2018-12-06T14:31:49.089Z,17.63
2018-12-06T14:34:17.269Z,8.53
2018-12-06T14:36:45.428Z,7.97
2018-12-06T14:39:13.657Z,8.30
2018-12-06T14:41:41.911Z,19.27
2018-12-06T14:44:10.225Z,11.63
2018-12-06T14:46:38.476Z,10.90
2018-12-06T14:49:06.628Z,16.77
2018-12-06T14:51:34.784Z,17.93
2018-12-06T14:54:02.965Z,14.70
2018-12-06T14:56:31.252Z,27.50
2018-12-06T14:58:59.508Z,55.97
2018-12-06T15:01:27.670Z,26.73
2018-12-06T15:03:55.870Z,26.50
2018-12-06T15:06:24.105Z,20.83
2018-12-06T15:08:52.429Z,28.90
2018-12-06T15:11:20.691Z,21.67
2018-12-06T15:13:48.985Z,20.07
2018-12-06T15:16:17.275Z,13.80
2018-12-06T15:18:45.669Z,16.20
2018-12-06T15:21:14.040Z,17.57
2018-12-06T15:23:42.250Z,18.80
2018-12-06T15:26:10.591Z,22.50
2018-12-06T15:28:38.757Z,22.17
2018-12-06T15:31:07.037Z,32.97
2018-12-06T15:33:35.200Z,24.70
2018-12-06T15:36:03.352Z,28.73
2018-12-06T15:38:31.550Z,36.93
2018-12-06T15:40:59.713Z,29.87
2018-12-06T15:43:27.886Z,31.50
2018-12-06T15:45:56.290Z,30.67
2018-12-06T15:48:24.465Z,23.33
2018-12-06T15:50:52.617Z,27.20
2018-12-06T15:53:20.812Z,24.00
2018-12-06T15:55:49.105Z,22.37
2018-12-06T15:58:17.364Z,25.60
2018-12-06T16:00:45.693Z,19.63
2018-12-06T16:03:13.861Z,20.13
2018-12-06T16:05:43.498Z,24.33
2018-12-06T16:08:12.085Z,27.20
2018-12-06T16:10:40.270Z,21.83
2018-12-06T16:13:08.449Z,29.87
2018-12-06T16:15:36.697Z,19.63
2018-12-06T16:18:04.854Z,22.70
2018-12-06T16:20:33.184Z,24.30
2018-12-06T16:23:01.356Z,23.37
2018-12-06T16:25:29.547Z,24.83
2018-12-06T16:27:57.710Z,30.50
2018-12-06T16:30:26.105Z,22.87
2018-12-06T16:32:54.256Z,24.27
2018-12-06T16:35:22.445Z,22.67
2018-12-06T16:37:50.705Z,37.93
2018-12-06T16:40:19.109Z,36.13
2018-12-06T16:42:47.377Z,31.73
2018-12-06T16:45:15.546Z,34.37
2018-12-06T16:47:43.696Z,37.70
2018-12-06T16:50:11.866Z,36.13
2018-12-06T16:52:40.065Z,57.67
2018-12-06T16:55:08.664Z,59.23
2018-12-06T16:57:36.821Z,46.13
2018-12-06T17:00:07.993Z,41.60
2018-12-06T17:02:36.145Z,42.23
2018-12-06T17:05:04.992Z,40.10
2018-12-06T17:07:33.213Z,34.37
2018-12-06T17:10:01.374Z,36.53
2018-12-06T17:12:29.565Z,33.20
2018-12-06T17:14:57.737Z,25.07
2018-12-06T17:17:25.913Z,21.20
2018-12-06T17:19:54.593Z,24.90
2018-12-06T17:22:22.773Z,31.90
2018-12-06T17:24:50.941Z,25.60
2018-12-06T17:27:19.133Z,33.30
2018-12-06T17:29:47.572Z,25.73
2018-12-06T17:32:15.889Z,21.53
2018-12-06T17:34:44.277Z,27.93
2018-12-06T17:37:12.488Z,31.80
2018-12-06T17:39:40.753Z,29.23
2018-12-06T17:42:08.910Z,23.03
2018-12-06T17:44:37.797Z,29.33
2018-12-06T17:47:06.093Z,19.77
2018-12-06T17:49:34.269Z,15.00
2018-12-06T17:52:02.533Z,18.53
2018-12-06T17:54:31.001Z,21.07
2018-12-06T17:56:59.209Z,20.87
2018-12-06T17:59:27.378Z,23.87
2018-12-06T18:01:55.546Z,24.20
2018-12-06T18:04:23.697Z,20.40
2018-12-06T18:06:51.953Z,25.17
2018-12-06T18:09:20.125Z,21.13
2018-12-06T18:11:48.334Z,22.13
2018-12-06T18:14:16.485Z,21.30
2018-12-06T18:16:44.644Z,23.00
2018-12-06T18:19:13.005Z,25.77
2018-12-06T18:21:41.449Z,22.90
2018-12-06T18:24:09.804Z,25.97
2018-12-06T18:26:38.013Z,26.53
2018-12-06T18:29:06.182Z,38.87
2018-12-06T18:31:34.405Z,23.90
2018-12-06T18:34:02.589Z,18.33
2018-12-06T18:36:30.739Z,32.50
2018-12-06T18:38:58.894Z,24.07
2018-12-06T18:41:27.064Z,21.80
2018-12-06T18:43:55.235Z,20.40
2018-12-06T18:46:23.393Z,16.00
2018-12-06T18:48:51.616Z,18.13
2018-12-06T18:51:19.853Z,17.70
2018-12-06T18:53:48.172Z,14.00
2018-12-06T18:56:16.645Z,15.83
2018-12-06T18:58:44.807Z,14.23
2018-12-06T19:01:12.974Z,14.33
2018-12-06T19:03:41.229Z,15.73
2018-12-06T19:06:09.385Z,17.30
2018-12-06T19:08:37.600Z,19.90
2018-12-06T19:11:05.845Z,17.20
2018-12-06T19:13:33.990Z,17.67
2018-12-06T19:16:02.230Z,16.13
2018-12-06T19:18:30.381Z,18.10
2018-12-06T19:20:58.547Z,15.53
2018-12-06T19:23:26.782Z,16.07
2018-12-06T19:25:54.945Z,19.47
2018-12-06T19:28:23.122Z,20.47
2018-12-06T19:30:51.477Z,20.07
2018-12-06T19:33:50.485Z,46.73
2018-12-06T19:36:18.749Z,34.73
2018-12-06T19:38:46.901Z,41.63
2018-12-06T19:41:15.124Z,25.53
2018-12-06T19:43:43.316Z,30.67
2018-12-06T19:46:12.072Z,25.37
2018-12-06T19:48:40.325Z,21.03
2018-12-06T19:51:08.541Z,11.80
2018-12-06T19:53:36.781Z,12.30
2018-12-06T19:56:05.164Z,11.40
2018-12-06T19:58:33.410Z,11.77
2018-12-06T20:01:01.574Z,10.97
2018-12-06T20:03:29.730Z,10.13
2018-12-06T20:05:58.141Z,7.93
2018-12-06T20:08:26.448Z,11.10
2018-12-06T20:10:54.601Z,6.87
2018-12-06T20:13:22.748Z,8.47
2018-12-06T20:15:50.919Z,6.03
2018-12-06T20:18:19.161Z,8.47
2018-12-06T20:20:47.333Z,7.20
2018-12-06T20:23:15.509Z,7.73
2018-12-06T20:25:43.696Z,7.80
2018-12-06T20:28:11.845Z,7.07
2018-12-06T20:30:40.005Z,29.80
2018-12-06T20:33:08.177Z,8.03
2018-12-06T20:35:36.405Z,5.50
2018-12-06T20:38:04.650Z,6.93
2018-12-06T20:40:32.793Z,8.07
2018-12-06T20:43:00.950Z,7.13
2018-12-06T20:45:29.179Z,9.03
2018-12-06T20:47:57.425Z,6.83
2018-12-06T20:50:25.661Z,6.37
2018-12-06T20:52:53.824Z,12.87
2018-12-06T20:55:21.977Z,10.17
2018-12-06T20:57:50.138Z,5.53
2018-12-06T21:00:18.421Z,9.73
2018-12-06T21:02:46.581Z,6.00
2018-12-06T21:05:14.729Z,7.47
2018-12-06T21:07:42.885Z,3.67
2018-12-06T21:10:11.025Z,4.47
2018-12-06T21:12:39.218Z,4.00
2018-12-06T21:15:07.928Z,2.80
2018-12-06T21:17:36.332Z,3.07
2018-12-06T21:20:04.817Z,3.33
2018-12-06T21:22:33.221Z,3.20
2018-12-06T21:25:01.392Z,3.53
2018-12-06T21:27:29.629Z,3.00
2018-12-06T21:29:57.792Z,3.90
2018-12-06T21:32:25.961Z,2.33
2018-12-06T21:34:54.113Z,5.13
2018-12-06T21:37:22.276Z,2.17
2018-12-06T21:39:50.476Z,2.57
2018-12-06T21:42:18.628Z,2.70
2018-12-06T21:44:46.779Z,2.40
2018-12-06T21:47:20.180Z,2.10
2018-12-06T21:49:48.486Z,1.83
2018-12-06T21:52:16.684Z,2.87
2018-12-06T21:54:44.890Z,2.87
2018-12-06T21:57:13.120Z,2.73
2018-12-06T21:59:41.304Z,3.07
2018-12-06T22:02:22.001Z,4.10
2018-12-06T22:04:50.186Z,3.47
2018-12-06T22:07:18.609Z,3.23
2018-12-06T22:09:46.806Z,3.83
2018-12-06T22:12:14.944Z,2.90
2018-12-06T22:14:43.185Z,4.83
2018-12-06T22:17:11.418Z,2.83
2018-12-06T22:19:39.640Z,3.67
2018-12-06T22:22:07.957Z,5.00
2018-12-06T22:24:36.280Z,4.97
2018-12-06T22:27:04.453Z,4.40
2018-12-06T22:29:32.630Z,4.27
2018-12-06T22:32:00.849Z,4.03
2018-12-06T22:34:29.075Z,8.17
2018-12-06T22:36:57.232Z,3.87
2018-12-06T22:39:25.429Z,3.83
2018-12-06T22:41:53.661Z,2.57
2018-12-06T22:44:21.813Z,4.30
2018-12-06T22:46:49.968Z,2.63
2018-12-06T22:49:18.133Z,4.87
2018-12-06T22:51:46.281Z,1.20
2018-12-06T22:54:14.436Z,3.40
2018-12-06T22:56:42.628Z,2.20
2018-12-06T22:59:10.961Z,2.73
2018-12-06T23:01:40.097Z,2.63
2018-12-06T23:04:08.725Z,2.40
2018-12-06T23:06:38.101Z,2.03
2018-12-06T23:09:09.173Z,3.23
2018-12-06T23:11:38.177Z,1.30
2018-12-06T23:14:06.320Z,2.30
2018-12-06T23:16:34.645Z,2.47
2018-12-06T23:19:03.369Z,2.30
2018-12-06T23:21:31.609Z,1.73
2018-12-06T23:23:59.921Z,1.83
2018-12-06T23:26:28.084Z,2.33
2018-12-06T23:28:56.313Z,1.40
2018-12-06T23:31:24.476Z,1.73
2018-12-06T23:33:52.713Z,1.60
2018-12-06T23:36:20.872Z,2.30
2018-12-06T23:38:49.017Z,2.20
2018-12-06T23:41:17.173Z,2.60
2018-12-06T23:43:45.396Z,1.63
2018-12-06T23:46:13.577Z,1.73
2018-12-06T23:48:41.775Z,2.43
2018-12-06T23:51:21.371Z,2.13
2018-12-06T23:53:49.652Z,5.13
2018-12-06T23:56:17.821Z,2.53
2018-12-06T23:58:46.127Z,3.73
